sensor_id;sensor_type;location;lat;lon;timestamp;P1;durP1;ratioP1;P2;durP2;ratioP2
19043;SDS011;9654;52.302;8.120;2024-01-30T00:01:23;20.27;;;11.00;;
19043;SDS011;9654;52.302;8.120;2024-01-30T00:03:49;20.30;;;11.00;;
19043;SDS011;9654;52.302;8.120;2024-01-30T00:06:18;18.97;;;10.87;;
19043;SDS011;9654;52.302;8.120;2024-01-30T00:08:45;22.20;;;12.20;;
19043;SDS011;9654;52.302;8.120;2024-01-30T00:11:14;18.00;;;11.10;;
19043;SDS011;9654;52.302;8.120;2024-01-30T00:13:42;18.30;;;10.70;;
19043;SDS011;9654;52.302;8.120;2024-01-30T00:16:19;19.37;;;12.40;;
19043;SDS011;9654;52.302;8.120;2024-01-30T00:18:46;21.70;;;12.47;;
19043;SDS011;9654;52.302;8.120;2024-01-30T00:21:13;17.73;;;11.70;;
19043;SDS011;9654;52.302;8.120;2024-01-30T00:23:40;20.30;;;11.50;;
19043;SDS011;9654;52.302;8.120;2024-01-30T00:26:07;20.70;;;11.30;;
19043;SDS011;9654;52.302;8.120;2024-01-30T00:28:34;18.73;;;10.77;;
19043;SDS011;9654;52.302;8.120;2024-01-30T00:31:02;19.47;;;10.60;;
19043;SDS011;9654;52.302;8.120;2024-01-30T00:33:30;19.87;;;11.27;;
19043;SDS011;9654;52.302;8.120;2024-01-30T00:35:57;18.53;;;11.07;;
19043;SDS011;9654;52.302;8.120;2024-01-30T00:38:23;17.27;;;10.43;;
19043;SDS011;9654;52.302;8.120;2024-01-30T00:40:50;16.83;;;10.20;;
19043;SDS011;9654;52.302;8.120;2024-01-30T00:43:17;16.40;;;10.10;;
19043;SDS011;9654;52.302;8.120;2024-01-30T00:45:45;18.20;;;11.00;;
19043;SDS011;9654;52.302;8.120;2024-01-30T00:48:13;15.87;;;9.87;;
19043;SDS011;9654;52.302;8.120;2024-01-30T00:50:40;19.73;;;11.07;;
19043;SDS011;9654;52.302;8.120;2024-01-30T00:53:07;17.10;;;10.50;;
19043;SDS011;9654;52.302;8.120;2024-01-30T00:55:33;17.13;;;9.77;;
19043;SDS011;9654;52.302;8.120;2024-01-30T00:58:01;15.00;;;9.97;;
19043;SDS011;9654;52.302;8.120;2024-01-30T01:00:28;16.97;;;10.33;;
19043;SDS011;9654;52.302;8.120;2024-01-30T01:02:56;15.90;;;10.07;;
19043;SDS011;9654;52.302;8.120;2024-01-30T01:05:24;14.70;;;9.87;;
19043;SDS011;9654;52.302;8.120;2024-01-30T01:07:51;15.80;;;9.93;;
19043;SDS011;9654;52.302;8.120;2024-01-30T01:10:18;18.20;;;10.50;;
19043;SDS011;9654;52.302;8.120;2024-01-30T01:12:45;19.20;;;11.60;;
19043;SDS011;9654;52.302;8.120;2024-01-30T01:15:12;19.03;;;10.37;;
19043;SDS011;9654;52.302;8.120;2024-01-30T01:17:39;17.33;;;10.40;;
19043;SDS011;9654;52.302;8.120;2024-01-30T01:20:07;17.03;;;10.27;;
19043;SDS011;9654;52.302;8.120;2024-01-30T01:22:37;21.27;;;10.13;;
19043;SDS011;9654;52.302;8.120;2024-01-30T01:25:05;19.03;;;10.40;;
19043;SDS011;9654;52.302;8.120;2024-01-30T01:27:33;16.30;;;10.87;;
19043;SDS011;9654;52.302;8.120;2024-01-30T01:30:05;17.70;;;10.33;;
19043;SDS011;9654;52.302;8.120;2024-01-30T01:32:34;16.70;;;9.80;;
19043;SDS011;9654;52.302;8.120;2024-01-30T01:35:01;17.17;;;10.03;;
19043;SDS011;9654;52.302;8.120;2024-01-30T01:37:30;17.57;;;9.93;;
19043;SDS011;9654;52.302;8.120;2024-01-30T01:39:59;22.10;;;11.20;;
19043;SDS011;9654;52.302;8.120;2024-01-30T01:42:26;21.13;;;12.23;;
19043;SDS011;9654;52.302;8.120;2024-01-30T01:44:53;21.10;;;11.07;;
19043;SDS011;9654;52.302;8.120;2024-01-30T01:47:20;17.80;;;11.03;;
19043;SDS011;9654;52.302;8.120;2024-01-30T01:49:47;15.53;;;9.87;;
19043;SDS011;9654;52.302;8.120;2024-01-30T01:52:14;20.57;;;11.23;;
19043;SDS011;9654;52.302;8.120;2024-01-30T01:54:41;18.50;;;10.53;;
19043;SDS011;9654;52.302;8.120;2024-01-30T01:57:10;17.97;;;11.67;;
19043;SDS011;9654;52.302;8.120;2024-01-30T01:59:36;15.27;;;10.87;;
19043;SDS011;9654;52.302;8.120;2024-01-30T02:02:03;16.97;;;11.17;;
19043;SDS011;9654;52.302;8.120;2024-01-30T02:04:33;18.43;;;11.17;;
19043;SDS011;9654;52.302;8.120;2024-01-30T02:07:00;19.83;;;11.37;;
19043;SDS011;9654;52.302;8.120;2024-01-30T02:09:27;18.53;;;10.37;;
19043;SDS011;9654;52.302;8.120;2024-01-30T02:11:53;16.37;;;10.40;;
19043;SDS011;9654;52.302;8.120;2024-01-30T02:14:22;17.83;;;10.20;;
19043;SDS011;9654;52.302;8.120;2024-01-30T02:16:49;19.73;;;11.53;;
19043;SDS011;9654;52.302;8.120;2024-01-30T02:19:16;20.23;;;11.70;;
19043;SDS011;9654;52.302;8.120;2024-01-30T02:21:44;19.90;;;12.00;;
19043;SDS011;9654;52.302;8.120;2024-01-30T02:24:12;18.07;;;11.00;;
19043;SDS011;9654;52.302;8.120;2024-01-30T02:26:39;16.90;;;10.67;;
19043;SDS011;9654;52.302;8.120;2024-01-30T02:29:06;20.80;;;12.07;;
19043;SDS011;9654;52.302;8.120;2024-01-30T02:31:32;18.63;;;11.20;;
19043;SDS011;9654;52.302;8.120;2024-01-30T02:33:59;21.13;;;10.83;;
19043;SDS011;9654;52.302;8.120;2024-01-30T02:36:26;19.43;;;11.57;;
19043;SDS011;9654;52.302;8.120;2024-01-30T02:38:54;23.33;;;11.77;;
19043;SDS011;9654;52.302;8.120;2024-01-30T02:41:21;20.43;;;10.97;;
19043;SDS011;9654;52.302;8.120;2024-01-30T02:43:48;19.10;;;10.87;;
19043;SDS011;9654;52.302;8.120;2024-01-30T02:46:15;22.13;;;11.70;;
19043;SDS011;9654;52.302;8.120;2024-01-30T02:48:42;20.43;;;11.37;;
19043;SDS011;9654;52.302;8.120;2024-01-30T02:51:09;18.20;;;11.53;;
19043;SDS011;9654;52.302;8.120;2024-01-30T02:53:35;19.33;;;11.30;;
19043;SDS011;9654;52.302;8.120;2024-01-30T02:56:04;21.87;;;11.67;;
19043;SDS011;9654;52.302;8.120;2024-01-30T02:58:34;16.87;;;11.83;;
19043;SDS011;9654;52.302;8.120;2024-01-30T03:01:02;19.97;;;12.00;;
19043;SDS011;9654;52.302;8.120;2024-01-30T03:03:29;18.97;;;11.63;;
19043;SDS011;9654;52.302;8.120;2024-01-30T03:05:55;16.70;;;11.43;;
19043;SDS011;9654;52.302;8.120;2024-01-30T03:08:22;18.40;;;11.10;;
19043;SDS011;9654;52.302;8.120;2024-01-30T03:10:49;22.77;;;11.37;;
19043;SDS011;9654;52.302;8.120;2024-01-30T03:13:17;22.27;;;11.60;;
19043;SDS011;9654;52.302;8.120;2024-01-30T03:15:44;20.60;;;11.63;;
19043;SDS011;9654;52.302;8.120;2024-01-30T03:18:11;18.27;;;11.30;;
19043;SDS011;9654;52.302;8.120;2024-01-30T03:20:38;22.77;;;11.90;;
19043;SDS011;9654;52.302;8.120;2024-01-30T03:23:05;17.90;;;10.87;;
19043;SDS011;9654;52.302;8.120;2024-01-30T03:25:31;18.77;;;10.90;;
19043;SDS011;9654;52.302;8.120;2024-01-30T03:27:58;16.27;;;11.10;;
19043;SDS011;9654;52.302;8.120;2024-01-30T03:30:27;21.77;;;11.77;;
19043;SDS011;9654;52.302;8.120;2024-01-30T03:32:53;24.63;;;11.97;;
19043;SDS011;9654;52.302;8.120;2024-01-30T03:35:20;20.70;;;11.37;;
19043;SDS011;9654;52.302;8.120;2024-01-30T03:37:47;19.83;;;12.03;;
19043;SDS011;9654;52.302;8.120;2024-01-30T03:40:14;21.23;;;11.80;;
19043;SDS011;9654;52.302;8.120;2024-01-30T03:42:41;26.07;;;13.23;;
19043;SDS011;9654;52.302;8.120;2024-01-30T03:45:08;20.73;;;11.13;;
19043;SDS011;9654;52.302;8.120;2024-01-30T03:47:37;15.93;;;10.97;;
19043;SDS011;9654;52.302;8.120;2024-01-30T03:50:04;15.40;;;10.17;;
19043;SDS011;9654;52.302;8.120;2024-01-30T03:52:31;16.80;;;10.73;;
19043;SDS011;9654;52.302;8.120;2024-01-30T03:54:58;18.63;;;11.10;;
19043;SDS011;9654;52.302;8.120;2024-01-30T03:57:25;20.70;;;10.47;;
19043;SDS011;9654;52.302;8.120;2024-01-30T03:59:52;17.57;;;11.20;;
19043;SDS011;9654;52.302;8.120;2024-01-30T04:02:19;19.07;;;10.27;;
19043;SDS011;9654;52.302;8.120;2024-01-30T04:04:47;15.73;;;10.00;;
19043;SDS011;9654;52.302;8.120;2024-01-30T04:07:14;18.87;;;10.90;;
19043;SDS011;9654;52.302;8.120;2024-01-30T04:09:41;18.63;;;10.87;;
19043;SDS011;9654;52.302;8.120;2024-01-30T04:12:08;16.77;;;10.63;;
19043;SDS011;9654;52.302;8.120;2024-01-30T04:14:35;20.97;;;10.73;;
19043;SDS011;9654;52.302;8.120;2024-01-30T04:17:04;19.60;;;10.90;;
19043;SDS011;9654;52.302;8.120;2024-01-30T04:19:31;18.83;;;10.63;;
19043;SDS011;9654;52.302;8.120;2024-01-30T04:21:59;18.20;;;11.23;;
19043;SDS011;9654;52.302;8.120;2024-01-30T04:24:26;17.60;;;10.57;;
19043;SDS011;9654;52.302;8.120;2024-01-30T04:26:52;22.33;;;9.53;;
19043;SDS011;9654;52.302;8.120;2024-01-30T04:29:19;19.20;;;10.40;;
19043;SDS011;9654;52.302;8.120;2024-01-30T04:31:47;16.43;;;10.40;;
19043;SDS011;9654;52.302;8.120;2024-01-30T04:34:14;16.43;;;9.13;;
19043;SDS011;9654;52.302;8.120;2024-01-30T04:36:43;16.13;;;9.17;;
19043;SDS011;9654;52.302;8.120;2024-01-30T04:39:12;21.13;;;9.87;;
19043;SDS011;9654;52.302;8.120;2024-01-30T04:41:39;18.93;;;9.50;;
19043;SDS011;9654;52.302;8.120;2024-01-30T04:44:06;15.33;;;9.90;;
19043;SDS011;9654;52.302;8.120;2024-01-30T04:46:33;14.50;;;9.67;;
19043;SDS011;9654;52.302;8.120;2024-01-30T04:49:00;14.37;;;8.70;;
19043;SDS011;9654;52.302;8.120;2024-01-30T04:51:26;17.27;;;9.17;;
19043;SDS011;9654;52.302;8.120;2024-01-30T04:53:53;13.73;;;9.17;;
19043;SDS011;9654;52.302;8.120;2024-01-30T04:56:22;16.07;;;9.83;;
19043;SDS011;9654;52.302;8.120;2024-01-30T04:58:48;17.17;;;9.43;;
19043;SDS011;9654;52.302;8.120;2024-01-30T05:01:15;18.07;;;10.30;;
19043;SDS011;9654;52.302;8.120;2024-01-30T05:03:44;13.10;;;9.07;;
19043;SDS011;9654;52.302;8.120;2024-01-30T05:06:11;13.80;;;9.27;;
19043;SDS011;9654;52.302;8.120;2024-01-30T05:08:38;20.07;;;9.83;;
19043;SDS011;9654;52.302;8.120;2024-01-30T05:11:05;18.77;;;10.57;;
19043;SDS011;9654;52.302;8.120;2024-01-30T05:13:33;18.53;;;9.30;;
19043;SDS011;9654;52.302;8.120;2024-01-30T05:16:01;19.30;;;10.00;;
19043;SDS011;9654;52.302;8.120;2024-01-30T05:18:29;20.13;;;10.63;;
19043;SDS011;9654;52.302;8.120;2024-01-30T05:20:56;23.27;;;10.07;;
19043;SDS011;9654;52.302;8.120;2024-01-30T05:23:23;13.93;;;9.17;;
19043;SDS011;9654;52.302;8.120;2024-01-30T05:25:50;18.43;;;9.93;;
19043;SDS011;9654;52.302;8.120;2024-01-30T05:28:16;18.40;;;10.00;;
19043;SDS011;9654;52.302;8.120;2024-01-30T05:30:46;16.43;;;10.17;;
19043;SDS011;9654;52.302;8.120;2024-01-30T05:33:13;15.40;;;9.40;;
19043;SDS011;9654;52.302;8.120;2024-01-30T05:35:40;19.00;;;9.13;;
19043;SDS011;9654;52.302;8.120;2024-01-30T05:38:07;15.80;;;9.00;;
19043;SDS011;9654;52.302;8.120;2024-01-30T05:40:33;17.57;;;9.87;;
19043;SDS011;9654;52.302;8.120;2024-01-30T05:43:00;18.33;;;9.70;;
19043;SDS011;9654;52.302;8.120;2024-01-30T05:45:27;14.87;;;9.03;;
19043;SDS011;9654;52.302;8.120;2024-01-30T05:47:56;22.27;;;10.37;;
19043;SDS011;9654;52.302;8.120;2024-01-30T05:50:23;14.03;;;7.67;;
19043;SDS011;9654;52.302;8.120;2024-01-30T05:52:51;13.20;;;8.33;;
19043;SDS011;9654;52.302;8.120;2024-01-30T05:55:18;13.70;;;8.90;;
19043;SDS011;9654;52.302;8.120;2024-01-30T05:57:45;13.03;;;8.00;;
19043;SDS011;9654;52.302;8.120;2024-01-30T06:00:12;20.93;;;9.13;;
19043;SDS011;9654;52.302;8.120;2024-01-30T06:02:39;14.33;;;8.77;;
19043;SDS011;9654;52.302;8.120;2024-01-30T06:05:08;19.50;;;9.13;;
19043;SDS011;9654;52.302;8.120;2024-01-30T06:07:35;16.07;;;9.60;;
19043;SDS011;9654;52.302;8.120;2024-01-30T06:10:02;15.20;;;9.53;;
19043;SDS011;9654;52.302;8.120;2024-01-30T06:12:29;15.80;;;8.57;;
19043;SDS011;9654;52.302;8.120;2024-01-30T06:14:56;15.60;;;8.57;;
19043;SDS011;9654;52.302;8.120;2024-01-30T06:17:23;16.07;;;8.57;;
19043;SDS011;9654;52.302;8.120;2024-01-30T06:19:50;15.37;;;8.57;;
19043;SDS011;9654;52.302;8.120;2024-01-30T06:22:18;14.43;;;9.27;;
19043;SDS011;9654;52.302;8.120;2024-01-30T06:24:46;15.67;;;9.10;;
19043;SDS011;9654;52.302;8.120;2024-01-30T06:27:13;14.87;;;9.03;;
19043;SDS011;9654;52.302;8.120;2024-01-30T06:29:41;15.30;;;8.93;;
19043;SDS011;9654;52.302;8.120;2024-01-30T06:32:09;17.77;;;9.57;;
19043;SDS011;9654;52.302;8.120;2024-01-30T06:34:36;15.17;;;8.50;;
19043;SDS011;9654;52.302;8.120;2024-01-30T06:37:03;12.63;;;8.63;;
19043;SDS011;9654;52.302;8.120;2024-01-30T06:39:32;12.23;;;8.87;;
19043;SDS011;9654;52.302;8.120;2024-01-30T06:41:59;14.03;;;8.57;;
19043;SDS011;9654;52.302;8.120;2024-01-30T06:44:26;16.37;;;9.30;;
19043;SDS011;9654;52.302;8.120;2024-01-30T06:46:53;15.03;;;8.80;;
19043;SDS011;9654;52.302;8.120;2024-01-30T06:49:20;15.07;;;9.40;;
19043;SDS011;9654;52.302;8.120;2024-01-30T06:51:48;16.97;;;8.70;;
19043;SDS011;9654;52.302;8.120;2024-01-30T06:54:14;18.40;;;9.13;;
19043;SDS011;9654;52.302;8.120;2024-01-30T06:56:43;15.83;;;8.50;;
19043;SDS011;9654;52.302;8.120;2024-01-30T06:59:09;14.27;;;8.27;;
19043;SDS011;9654;52.302;8.120;2024-01-30T07:01:36;14.03;;;7.80;;
19043;SDS011;9654;52.302;8.120;2024-01-30T07:04:03;13.50;;;7.93;;
19043;SDS011;9654;52.302;8.120;2024-01-30T07:06:30;14.43;;;8.80;;
19043;SDS011;9654;52.302;8.120;2024-01-30T07:08:57;12.10;;;6.93;;
19043;SDS011;9654;52.302;8.120;2024-01-30T07:11:24;15.50;;;7.93;;
19043;SDS011;9654;52.302;8.120;2024-01-30T07:13:53;11.50;;;7.87;;
19043;SDS011;9654;52.302;8.120;2024-01-30T07:16:20;15.00;;;8.87;;
19043;SDS011;9654;52.302;8.120;2024-01-30T07:18:48;14.63;;;7.57;;
19043;SDS011;9654;52.302;8.120;2024-01-30T07:21:15;17.87;;;8.10;;
19043;SDS011;9654;52.302;8.120;2024-01-30T07:23:42;14.47;;;7.07;;
19043;SDS011;9654;52.302;8.120;2024-01-30T07:26:09;14.17;;;7.90;;
19043;SDS011;9654;52.302;8.120;2024-01-30T07:28:36;15.70;;;9.07;;
19043;SDS011;9654;52.302;8.120;2024-01-30T07:31:04;11.60;;;7.30;;
19043;SDS011;9654;52.302;8.120;2024-01-30T07:33:31;15.57;;;8.27;;
19043;SDS011;9654;52.302;8.120;2024-01-30T07:35:58;14.90;;;8.20;;
19043;SDS011;9654;52.302;8.120;2024-01-30T07:38:25;12.63;;;7.20;;
19043;SDS011;9654;52.302;8.120;2024-01-30T07:40:52;13.03;;;7.00;;
19043;SDS011;9654;52.302;8.120;2024-01-30T07:43:19;12.70;;;7.03;;
19043;SDS011;9654;52.302;8.120;2024-01-30T07:45:46;11.27;;;6.70;;
19043;SDS011;9654;52.302;8.120;2024-01-30T07:48:14;11.93;;;7.20;;
19043;SDS011;9654;52.302;8.120;2024-01-30T07:50:41;15.87;;;7.93;;
19043;SDS011;9654;52.302;8.120;2024-01-30T07:53:08;12.50;;;7.83;;
19043;SDS011;9654;52.302;8.120;2024-01-30T07:55:35;13.40;;;7.17;;
19043;SDS011;9654;52.302;8.120;2024-01-30T07:58:02;11.80;;;7.27;;
19043;SDS011;9654;52.302;8.120;2024-01-30T08:00:29;10.47;;;7.67;;
19043;SDS011;9654;52.302;8.120;2024-01-30T08:02:56;11.40;;;7.30;;
19043;SDS011;9654;52.302;8.120;2024-01-30T08:05:25;11.07;;;6.87;;
19043;SDS011;9654;52.302;8.120;2024-01-30T08:07:52;13.00;;;7.73;;
19043;SDS011;9654;52.302;8.120;2024-01-30T08:10:18;14.83;;;7.10;;
19043;SDS011;9654;52.302;8.120;2024-01-30T08:12:46;12.53;;;8.07;;
19043;SDS011;9654;52.302;8.120;2024-01-30T08:15:13;12.50;;;7.77;;
19043;SDS011;9654;52.302;8.120;2024-01-30T08:17:40;11.60;;;7.10;;
19043;SDS011;9654;52.302;8.120;2024-01-30T08:20:07;14.57;;;7.17;;
19043;SDS011;9654;52.302;8.120;2024-01-30T08:22:37;16.93;;;7.13;;
19043;SDS011;9654;52.302;8.120;2024-01-30T08:25:05;11.43;;;6.90;;
19043;SDS011;9654;52.302;8.120;2024-01-30T08:27:32;13.63;;;7.57;;
19043;SDS011;9654;52.302;8.120;2024-01-30T08:30:00;14.43;;;8.10;;
19043;SDS011;9654;52.302;8.120;2024-01-30T08:32:28;12.27;;;7.20;;
19043;SDS011;9654;52.302;8.120;2024-01-30T08:34:57;17.63;;;9.70;;
19043;SDS011;9654;52.302;8.120;2024-01-30T08:37:24;17.93;;;9.60;;
19043;SDS011;9654;52.302;8.120;2024-01-30T08:39:52;17.33;;;9.80;;
19043;SDS011;9654;52.302;8.120;2024-01-30T08:42:19;11.83;;;7.97;;
19043;SDS011;9654;52.302;8.120;2024-01-30T08:44:47;12.53;;;7.00;;
19043;SDS011;9654;52.302;8.120;2024-01-30T08:47:16;16.27;;;9.10;;
19043;SDS011;9654;52.302;8.120;2024-01-30T08:49:43;11.87;;;7.50;;
19043;SDS011;9654;52.302;8.120;2024-01-30T08:52:10;18.47;;;9.10;;
19043;SDS011;9654;52.302;8.120;2024-01-30T08:54:37;22.10;;;12.73;;
19043;SDS011;9654;52.302;8.120;2024-01-30T08:57:05;41.90;;;25.33;;
19043;SDS011;9654;52.302;8.120;2024-01-30T08:59:32;18.70;;;11.17;;
19043;SDS011;9654;52.302;8.120;2024-01-30T09:01:59;12.93;;;8.70;;
19043;SDS011;9654;52.302;8.120;2024-01-30T09:04:26;13.73;;;8.27;;
19043;SDS011;9654;52.302;8.120;2024-01-30T09:06:53;24.50;;;12.93;;
19043;SDS011;9654;52.302;8.120;2024-01-30T09:09:20;24.83;;;15.23;;
19043;SDS011;9654;52.302;8.120;2024-01-30T09:11:47;8.97;;;6.53;;
19043;SDS011;9654;52.302;8.120;2024-01-30T09:14:15;15.13;;;8.10;;
19043;SDS011;9654;52.302;8.120;2024-01-30T09:16:42;10.77;;;6.37;;
19043;SDS011;9654;52.302;8.120;2024-01-30T09:19:09;11.77;;;7.10;;
19043;SDS011;9654;52.302;8.120;2024-01-30T09:21:36;9.10;;;5.77;;
19043;SDS011;9654;52.302;8.120;2024-01-30T09:24:03;10.73;;;5.93;;
19043;SDS011;9654;52.302;8.120;2024-01-30T09:26:30;8.90;;;6.10;;
19043;SDS011;9654;52.302;8.120;2024-01-30T09:28:57;12.47;;;6.80;;
19043;SDS011;9654;52.302;8.120;2024-01-30T09:31:26;9.30;;;5.80;;
19043;SDS011;9654;52.302;8.120;2024-01-30T09:33:53;9.50;;;6.13;;
19043;SDS011;9654;52.302;8.120;2024-01-30T09:36:20;14.43;;;6.40;;
19043;SDS011;9654;52.302;8.120;2024-01-30T09:38:47;10.40;;;5.83;;
19043;SDS011;9654;52.302;8.120;2024-01-30T09:41:14;12.93;;;5.83;;
19043;SDS011;9654;52.302;8.120;2024-01-30T09:43:44;15.67;;;6.97;;
19043;SDS011;9654;52.302;8.120;2024-01-30T09:46:14;7.97;;;5.50;;
19043;SDS011;9654;52.302;8.120;2024-01-30T09:48:46;12.37;;;6.03;;
19043;SDS011;9654;52.302;8.120;2024-01-30T09:51:14;8.93;;;6.20;;
19043;SDS011;9654;52.302;8.120;2024-01-30T09:53:42;9.00;;;6.87;;
19043;SDS011;9654;52.302;8.120;2024-01-30T09:56:09;12.00;;;6.67;;
19043;SDS011;9654;52.302;8.120;2024-01-30T09:58:37;12.13;;;6.83;;
19043;SDS011;9654;52.302;8.120;2024-01-30T10:01:04;11.00;;;7.17;;
19043;SDS011;9654;52.302;8.120;2024-01-30T10:03:31;12.63;;;6.10;;
19043;SDS011;9654;52.302;8.120;2024-01-30T10:06:00;12.37;;;6.03;;
19043;SDS011;9654;52.302;8.120;2024-01-30T10:08:27;14.27;;;6.77;;
19043;SDS011;9654;52.302;8.120;2024-01-30T10:10:54;14.83;;;8.77;;
19043;SDS011;9654;52.302;8.120;2024-01-30T10:13:22;11.67;;;6.60;;
19043;SDS011;9654;52.302;8.120;2024-01-30T10:15:48;12.63;;;6.70;;
19043;SDS011;9654;52.302;8.120;2024-01-30T10:18:17;9.50;;;6.20;;
19043;SDS011;9654;52.302;8.120;2024-01-30T10:20:44;8.83;;;5.90;;
19043;SDS011;9654;52.302;8.120;2024-01-30T10:23:13;11.97;;;6.83;;
19043;SDS011;9654;52.302;8.120;2024-01-30T10:25:40;9.40;;;6.10;;
19043;SDS011;9654;52.302;8.120;2024-01-30T10:28:07;11.93;;;5.73;;
19043;SDS011;9654;52.302;8.120;2024-01-30T10:30:34;9.07;;;5.53;;
19043;SDS011;9654;52.302;8.120;2024-01-30T10:33:01;11.83;;;6.40;;
19043;SDS011;9654;52.302;8.120;2024-01-30T10:35:29;12.90;;;6.27;;
19043;SDS011;9654;52.302;8.120;2024-01-30T10:37:56;22.80;;;13.53;;
19043;SDS011;9654;52.302;8.120;2024-01-30T10:40:27;34.13;;;18.03;;
19043;SDS011;9654;52.302;8.120;2024-01-30T10:42:55;58.60;;;27.23;;
19043;SDS011;9654;52.302;8.120;2024-01-30T10:45:22;32.60;;;17.83;;
19043;SDS011;9654;52.302;8.120;2024-01-30T10:47:53;14.83;;;8.47;;
19043;SDS011;9654;52.302;8.120;2024-01-30T10:50:23;12.53;;;6.97;;
19043;SDS011;9654;52.302;8.120;2024-01-30T10:52:52;12.30;;;7.00;;
19043;SDS011;9654;52.302;8.120;2024-01-30T10:55:19;12.60;;;6.33;;
19043;SDS011;9654;52.302;8.120;2024-01-30T10:57:50;12.23;;;6.47;;
19043;SDS011;9654;52.302;8.120;2024-01-30T11:00:18;11.07;;;7.87;;
19043;SDS011;9654;52.302;8.120;2024-01-30T11:02:48;11.77;;;7.93;;
19043;SDS011;9654;52.302;8.120;2024-01-30T11:05:22;12.27;;;7.20;;
19043;SDS011;9654;52.302;8.120;2024-01-30T11:07:50;13.73;;;7.03;;
19043;SDS011;9654;52.302;8.120;2024-01-30T11:10:17;13.93;;;9.80;;
19043;SDS011;9654;52.302;8.120;2024-01-30T11:12:45;13.73;;;9.13;;
19043;SDS011;9654;52.302;8.120;2024-01-30T11:15:14;15.57;;;7.50;;
19043;SDS011;9654;52.302;8.120;2024-01-30T11:17:42;12.23;;;7.47;;
19043;SDS011;9654;52.302;8.120;2024-01-30T11:20:11;10.37;;;7.27;;
19043;SDS011;9654;52.302;8.120;2024-01-30T11:22:40;11.17;;;6.70;;
19043;SDS011;9654;52.302;8.120;2024-01-30T11:25:11;10.57;;;7.20;;
19043;SDS011;9654;52.302;8.120;2024-01-30T11:27:38;8.73;;;6.23;;
19043;SDS011;9654;52.302;8.120;2024-01-30T11:30:06;14.63;;;6.77;;
19043;SDS011;9654;52.302;8.120;2024-01-30T11:32:35;10.83;;;6.70;;
19043;SDS011;9654;52.302;8.120;2024-01-30T11:35:03;11.10;;;6.53;;
19043;SDS011;9654;52.302;8.120;2024-01-30T11:37:31;11.60;;;7.60;;
19043;SDS011;9654;52.302;8.120;2024-01-30T11:40:03;14.10;;;7.60;;
19043;SDS011;9654;52.302;8.120;2024-01-30T11:42:31;10.97;;;6.67;;
19043;SDS011;9654;52.302;8.120;2024-01-30T11:44:59;10.03;;;6.57;;
19043;SDS011;9654;52.302;8.120;2024-01-30T11:47:27;12.83;;;7.63;;
19043;SDS011;9654;52.302;8.120;2024-01-30T11:49:56;12.50;;;6.90;;
19043;SDS011;9654;52.302;8.120;2024-01-30T11:52:23;11.53;;;6.40;;
19043;SDS011;9654;52.302;8.120;2024-01-30T11:54:50;12.20;;;6.97;;
19043;SDS011;9654;52.302;8.120;2024-01-30T11:57:17;13.57;;;7.40;;
19043;SDS011;9654;52.302;8.120;2024-01-30T11:59:44;16.03;;;7.13;;
19043;SDS011;9654;52.302;8.120;2024-01-30T12:02:15;10.67;;;7.13;;
19043;SDS011;9654;52.302;8.120;2024-01-30T12:04:42;12.67;;;6.97;;
19043;SDS011;9654;52.302;8.120;2024-01-30T12:07:11;10.83;;;6.90;;
19043;SDS011;9654;52.302;8.120;2024-01-30T12:09:38;11.83;;;6.77;;
19043;SDS011;9654;52.302;8.120;2024-01-30T12:12:06;12.37;;;7.23;;
19043;SDS011;9654;52.302;8.120;2024-01-30T12:14:37;13.47;;;6.67;;
19043;SDS011;9654;52.302;8.120;2024-01-30T12:17:05;12.33;;;7.73;;
19043;SDS011;9654;52.302;8.120;2024-01-30T12:19:32;14.60;;;7.83;;
19043;SDS011;9654;52.302;8.120;2024-01-30T12:21:59;12.70;;;8.30;;
19043;SDS011;9654;52.302;8.120;2024-01-30T12:24:29;14.77;;;7.67;;
19043;SDS011;9654;52.302;8.120;2024-01-30T12:26:56;13.40;;;7.03;;
19043;SDS011;9654;52.302;8.120;2024-01-30T12:29:23;16.73;;;7.90;;
19043;SDS011;9654;52.302;8.120;2024-01-30T12:31:52;15.47;;;8.50;;
19043;SDS011;9654;52.302;8.120;2024-01-30T12:34:20;18.20;;;8.40;;
19043;SDS011;9654;52.302;8.120;2024-01-30T12:36:48;20.93;;;8.27;;
19043;SDS011;9654;52.302;8.120;2024-01-30T12:39:15;16.67;;;7.87;;
19043;SDS011;9654;52.302;8.120;2024-01-30T12:41:44;14.97;;;8.17;;
19043;SDS011;9654;52.302;8.120;2024-01-30T12:44:13;15.57;;;7.47;;
19043;SDS011;9654;52.302;8.120;2024-01-30T12:46:40;14.70;;;8.47;;
19043;SDS011;9654;52.302;8.120;2024-01-30T12:49:07;12.27;;;7.50;;
19043;SDS011;9654;52.302;8.120;2024-01-30T12:51:34;18.47;;;8.60;;
19043;SDS011;9654;52.302;8.120;2024-01-30T12:54:04;16.40;;;9.33;;
19043;SDS011;9654;52.302;8.120;2024-01-30T12:56:32;19.80;;;10.00;;
19043;SDS011;9654;52.302;8.120;2024-01-30T12:59:00;19.27;;;8.47;;
19043;SDS011;9654;52.302;8.120;2024-01-30T13:01:27;11.70;;;7.77;;
19043;SDS011;9654;52.302;8.120;2024-01-30T13:03:54;17.60;;;9.43;;
19043;SDS011;9654;52.302;8.120;2024-01-30T13:06:22;15.37;;;7.73;;
19043;SDS011;9654;52.302;8.120;2024-01-30T13:08:49;19.10;;;9.33;;
19043;SDS011;9654;52.302;8.120;2024-01-30T13:11:16;19.43;;;10.50;;
19043;SDS011;9654;52.302;8.120;2024-01-30T13:13:43;16.40;;;9.60;;
19043;SDS011;9654;52.302;8.120;2024-01-30T13:16:11;21.73;;;11.93;;
19043;SDS011;9654;52.302;8.120;2024-01-30T13:18:38;20.13;;;9.20;;
19043;SDS011;9654;52.302;8.120;2024-01-30T13:21:05;16.97;;;10.83;;
19043;SDS011;9654;52.302;8.120;2024-01-30T13:23:32;23.20;;;15.47;;
19043;SDS011;9654;52.302;8.120;2024-01-30T13:25:59;26.73;;;15.23;;
19043;SDS011;9654;52.302;8.120;2024-01-30T13:28:26;24.57;;;12.53;;
19043;SDS011;9654;52.302;8.120;2024-01-30T13:30:53;42.47;;;24.80;;
19043;SDS011;9654;52.302;8.120;2024-01-30T13:33:21;32.63;;;16.07;;
19043;SDS011;9654;52.302;8.120;2024-01-30T13:35:48;28.73;;;14.20;;
19043;SDS011;9654;52.302;8.120;2024-01-30T13:38:15;29.80;;;16.63;;
19043;SDS011;9654;52.302;8.120;2024-01-30T13:40:42;15.43;;;8.53;;
19043;SDS011;9654;52.302;8.120;2024-01-30T13:43:09;18.10;;;8.53;;
19043;SDS011;9654;52.302;8.120;2024-01-30T13:45:36;14.07;;;8.53;;
19043;SDS011;9654;52.302;8.120;2024-01-30T13:48:03;12.60;;;8.23;;
19043;SDS011;9654;52.302;8.120;2024-01-30T13:50:32;20.03;;;9.20;;
19043;SDS011;9654;52.302;8.120;2024-01-30T13:52:59;13.23;;;8.50;;
19043;SDS011;9654;52.302;8.120;2024-01-30T13:55:26;11.03;;;7.37;;
19043;SDS011;9654;52.302;8.120;2024-01-30T13:57:53;17.23;;;7.97;;
19043;SDS011;9654;52.302;8.120;2024-01-30T14:00:20;15.03;;;8.87;;
19043;SDS011;9654;52.302;8.120;2024-01-30T14:02:48;12.23;;;7.63;;
19043;SDS011;9654;52.302;8.120;2024-01-30T14:05:15;14.27;;;8.43;;
19043;SDS011;9654;52.302;8.120;2024-01-30T14:07:44;9.47;;;7.03;;
19043;SDS011;9654;52.302;8.120;2024-01-30T14:10:10;13.20;;;6.97;;
19043;SDS011;9654;52.302;8.120;2024-01-30T14:12:38;18.07;;;7.40;;
19043;SDS011;9654;52.302;8.120;2024-01-30T14:15:06;16.73;;;7.57;;
19043;SDS011;9654;52.302;8.120;2024-01-30T14:17:34;12.67;;;7.67;;
19043;SDS011;9654;52.302;8.120;2024-01-30T14:20:02;13.17;;;7.80;;
19043;SDS011;9654;52.302;8.120;2024-01-30T14:22:30;13.87;;;7.40;;
19043;SDS011;9654;52.302;8.120;2024-01-30T14:24:58;11.63;;;6.90;;
19043;SDS011;9654;52.302;8.120;2024-01-30T14:27:25;11.50;;;7.37;;
19043;SDS011;9654;52.302;8.120;2024-01-30T14:29:51;16.23;;;7.70;;
19043;SDS011;9654;52.302;8.120;2024-01-30T14:32:18;14.00;;;7.47;;
19043;SDS011;9654;52.302;8.120;2024-01-30T14:34:45;11.23;;;6.93;;
19043;SDS011;9654;52.302;8.120;2024-01-30T14:37:12;14.87;;;7.17;;
19043;SDS011;9654;52.302;8.120;2024-01-30T14:39:39;12.47;;;6.93;;
19043;SDS011;9654;52.302;8.120;2024-01-30T14:42:08;12.73;;;7.43;;
19043;SDS011;9654;52.302;8.120;2024-01-30T14:44:35;12.10;;;7.37;;